createdAt,value
2023-09-06T00:03:59.420Z,100.00
2023-09-06T00:09:02.687Z,100.00
2023-09-06T00:14:04.616Z,100.00
2023-09-06T00:19:06.461Z,100.00
2023-09-06T00:24:11.418Z,100.00
2023-09-06T00:29:13.073Z,100.00
2023-09-06T00:34:14.715Z,100.00
2023-09-06T00:39:17.701Z,100.00
2023-09-06T00:44:19.354Z,100.00
2023-09-06T00:49:21.373Z,100.00
2023-09-06T00:54:26.311Z,100.00
2023-09-06T00:59:29.276Z,100.00
2023-09-06T01:04:31.841Z,100.00
2023-09-06T01:09:35.925Z,100.00
2023-09-06T01:14:37.756Z,100.00
2023-09-06T01:19:45.975Z,100.00
2023-09-06T01:24:49.948Z,100.00
2023-09-06T01:29:51.784Z,100.00
2023-09-06T01:34:53.996Z,100.00
2023-09-06T01:39:57.729Z,100.00
2023-09-06T01:44:59.428Z,100.00
2023-09-06T01:50:01.113Z,100.00
2023-09-06T01:55:04.869Z,100.00
2023-09-06T02:00:07.825Z,100.00
2023-09-06T02:05:15.636Z,100.00
2023-09-06T02:10:19.156Z,100.00
2023-09-06T02:15:21.261Z,100.00
2023-09-06T02:20:23.307Z,100.00
2023-09-06T02:25:29.621Z,100.00
2023-09-06T02:30:31.633Z,100.00
2023-09-06T02:35:33.426Z,100.00
2023-09-06T02:40:36.517Z,100.00
2023-09-06T02:45:38.536Z,100.00
2023-09-06T02:50:40.611Z,100.00
2023-09-06T02:55:43.674Z,100.00
2023-09-06T03:00:45.657Z,100.00
2023-09-06T03:05:47.409Z,100.00
2023-09-06T03:10:53.425Z,100.00
2023-09-06T03:15:55.159Z,100.00
2023-09-06T03:20:56.978Z,100.00
2023-09-06T03:26:02.399Z,100.00
2023-09-06T03:31:07.916Z,100.00
2023-09-06T03:36:10.535Z,100.00
2023-09-06T03:41:14.029Z,100.00
2023-09-06T03:46:15.962Z,100.00
2023-09-06T03:51:17.801Z,100.00
2023-09-06T03:56:20.883Z,100.00
2023-09-06T04:01:25.515Z,100.00
2023-09-06T04:06:28.773Z,100.00
2023-09-06T04:11:31.819Z,100.00
2023-09-06T04:16:33.590Z,100.00
2023-09-06T04:21:35.367Z,100.00
2023-09-06T04:26:38.971Z,100.00
2023-09-06T04:31:40.679Z,100.00
2023-09-06T04:36:42.568Z,100.00
2023-09-06T04:41:46.269Z,100.00
2023-09-06T04:46:48.470Z,100.00
2023-09-06T04:51:50.239Z,100.00
2023-09-06T04:56:54.539Z,100.00
2023-09-06T05:01:59.421Z,100.00
2023-09-06T05:07:01.276Z,100.00
2023-09-06T05:12:05.200Z,100.00
2023-09-06T05:17:08.941Z,100.00
2023-09-06T05:22:10.903Z,100.00
2023-09-06T05:27:15.720Z,100.00
2023-09-06T05:32:17.632Z,100.00
2023-09-06T05:37:19.811Z,100.00
2023-09-06T05:42:22.962Z,100.00
2023-09-06T05:47:25.045Z,100.00
2023-09-06T05:52:27.012Z,100.00
2023-09-06T05:57:31.191Z,100.00
2023-09-06T06:02:33.849Z,100.00
2023-09-06T06:07:35.768Z,100.00
2023-09-06T06:12:39.346Z,100.00
2023-09-06T06:17:41.440Z,100.00
2023-09-06T06:22:43.094Z,100.00
2023-09-06T06:27:46.270Z,100.00
2023-09-06T06:32:48.118Z,100.00
2023-09-06T06:37:50.029Z,100.00
2023-09-06T06:42:53.360Z,100.00
2023-09-06T06:47:55.467Z,100.00
2023-09-06T06:52:57.244Z,100.00
2023-09-06T06:58:00.350Z,100.00
2023-09-06T07:03:02.318Z,100.00
2023-09-06T07:08:04.718Z,100.00
2023-09-06T07:13:07.961Z,100.00
2023-09-06T07:18:09.863Z,100.00
2023-09-06T07:23:11.788Z,100.00
2023-09-06T07:28:15.328Z,100.00
2023-09-06T07:33:17.767Z,100.00
2023-09-06T07:38:19.458Z,100.00
2023-09-06T07:43:22.505Z,100.00
2023-09-06T07:48:25.787Z,100.00
2023-09-06T07:53:27.963Z,100.00
2023-09-06T07:58:31.581Z,99.84
2023-09-06T08:03:34.384Z,96.75
2023-09-06T08:08:36.710Z,93.21
2023-09-06T08:13:39.799Z,87.55
2023-09-06T08:18:41.619Z,79.97
2023-09-06T08:23:43.578Z,82.14
2023-09-06T08:28:46.512Z,77.52
2023-09-06T08:33:48.234Z,73.62
2023-09-06T08:38:50.060Z,72.47
2023-09-06T08:43:53.763Z,69.96
2023-09-06T08:48:56.774Z,67.01
2023-09-06T08:53:59.288Z,70.04
2023-09-06T08:59:02.555Z,63.34
2023-09-06T09:04:04.573Z,62.45
2023-09-06T09:09:14.632Z,61.42
2023-09-06T09:14:23.860Z,62.93
2023-09-06T09:19:26.793Z,61.38
2023-09-06T09:24:30.466Z,58.40
2023-09-06T09:29:33.780Z,60.32
2023-09-06T09:34:35.527Z,60.90
2023-09-06T09:39:37.748Z,57.60
2023-09-06T09:44:41.197Z,57.74
2023-09-06T09:49:43.521Z,55.13
2023-09-06T09:54:48.877Z,53.17
2023-09-06T09:59:54.507Z,52.89
2023-09-06T10:04:58.237Z,50.34
2023-09-06T10:10:02.106Z,52.66
2023-09-06T10:15:06.284Z,50.05
2023-09-06T10:20:09.792Z,51.63
2023-09-06T10:25:12.057Z,50.76
2023-09-06T10:30:15.925Z,50.20
2023-09-06T10:35:25.689Z,51.00
2023-09-06T10:41:08.763Z,47.28
2023-09-06T10:46:29.104Z,49.23
2023-09-06T10:51:31.053Z,47.71
2023-09-06T10:56:32.780Z,49.01
2023-09-06T11:01:46.706Z,43.01
2023-09-06T11:06:56.452Z,42.63
2023-09-06T11:11:59.368Z,43.43
2023-09-06T11:17:02.447Z,42.25
2023-09-06T11:22:08.309Z,41.02
2023-09-06T11:27:20.708Z,42.11
2023-09-06T11:32:23.831Z,39.69
2023-09-06T11:37:25.829Z,36.98
2023-09-06T11:42:28.931Z,36.09
2023-09-06T11:47:32.073Z,36.12
2023-09-06T11:52:44.172Z,36.31
2023-09-06T11:57:53.544Z,36.18
2023-09-06T12:03:10.642Z,34.79
2023-09-06T12:08:13.287Z,35.92
2023-09-06T12:13:14.975Z,35.06
2023-09-06T12:18:18.421Z,36.26
2023-09-06T12:23:20.825Z,36.23
2023-09-06T12:28:22.605Z,34.25
2023-09-06T12:33:26.556Z,34.52
2023-09-06T12:38:29.377Z,35.14
2023-09-06T12:43:32.156Z,33.23
2023-09-06T12:48:35.759Z,32.51
2023-09-06T12:53:37.802Z,31.42
2023-09-06T12:58:39.741Z,32.00
2023-09-06T13:03:42.980Z,34.14
2023-09-06T13:08:44.948Z,33.23
2023-09-06T13:13:46.707Z,32.83
2023-09-06T13:18:49.852Z,31.87
2023-09-06T13:23:51.560Z,32.61
2023-09-06T13:28:53.240Z,33.05
2023-09-06T13:33:56.242Z,31.05
2023-09-06T13:38:57.891Z,31.99
2023-09-06T13:43:59.700Z,31.09
2023-09-06T13:49:03.298Z,31.20
2023-09-06T13:54:05.875Z,31.38
2023-09-06T13:59:07.529Z,33.84
2023-09-06T14:04:10.869Z,31.16
2023-09-06T14:09:12.622Z,30.13
2023-09-06T14:14:14.443Z,28.95
2023-09-06T14:19:17.494Z,30.12
2023-09-06T14:24:19.140Z,30.70
2023-09-06T14:29:20.811Z,31.48
2023-09-06T14:34:23.960Z,32.35
2023-09-06T14:39:25.767Z,31.07
2023-09-06T14:44:27.548Z,31.01
2023-09-06T14:49:30.919Z,30.09
2023-09-06T14:54:32.897Z,30.87
2023-09-06T14:59:34.638Z,32.00
2023-09-06T15:04:37.817Z,30.28
2023-09-06T15:09:39.463Z,31.82
2023-09-06T15:14:41.261Z,31.62
2023-09-06T15:19:44.287Z,31.25
2023-09-06T15:24:45.930Z,30.40
2023-09-06T15:29:47.604Z,31.89
2023-09-06T15:34:50.841Z,32.15
2023-09-06T15:39:52.452Z,31.79
2023-09-06T15:44:54.505Z,32.68
2023-09-06T15:49:57.476Z,32.43
2023-09-06T15:54:59.357Z,33.94
2023-09-06T16:00:09.327Z,32.14
2023-09-06T16:05:19.798Z,32.65
2023-09-06T16:10:21.798Z,33.34
2023-09-06T16:15:23.500Z,34.91
2023-09-06T16:20:26.605Z,35.97
2023-09-06T16:25:28.397Z,34.09
2023-09-06T16:30:30.318Z,35.22
2023-09-06T16:35:36.271Z,35.13
2023-09-06T16:40:40.728Z,36.31
2023-09-06T16:45:42.610Z,36.06
2023-09-06T16:50:46.048Z,37.86
2023-09-06T16:55:48.034Z,38.43
2023-09-06T17:00:49.801Z,39.18
2023-09-06T17:05:52.927Z,38.75
2023-09-06T17:10:54.912Z,40.39
2023-09-06T17:15:56.936Z,42.62
2023-09-06T17:21:00.100Z,45.08
2023-09-06T17:26:01.817Z,46.52
2023-09-06T17:31:03.462Z,47.93
2023-09-06T17:36:07.413Z,50.05
2023-09-06T17:41:09.097Z,51.63
2023-09-06T17:46:10.766Z,53.31
2023-09-06T17:51:14.158Z,54.81
2023-09-06T17:56:16.392Z,56.55
2023-09-06T18:01:19.241Z,58.25
2023-09-06T18:06:22.556Z,59.86
2023-09-06T18:11:24.924Z,61.25
2023-09-06T18:16:26.716Z,62.39
2023-09-06T18:21:29.859Z,64.25
2023-09-06T18:26:31.714Z,65.89
2023-09-06T18:31:33.875Z,67.52
2023-09-06T18:36:36.933Z,68.93
2023-09-06T18:41:38.604Z,69.64
2023-09-06T18:46:40.523Z,70.68
2023-09-06T18:51:43.664Z,72.11
2023-09-06T18:56:45.581Z,74.11
2023-09-06T19:01:47.254Z,73.68
2023-09-06T19:06:50.249Z,74.50
2023-09-06T19:11:52.156Z,74.20
2023-09-06T19:16:53.897Z,74.70
2023-09-06T19:21:57.297Z,77.09
2023-09-06T19:26:59.053Z,77.37
2023-09-06T19:32:03.227Z,76.72
2023-09-06T19:37:07.776Z,77.46
2023-09-06T19:42:09.561Z,78.22
2023-09-06T19:47:11.419Z,79.36
2023-09-06T19:52:14.503Z,80.51
2023-09-06T19:57:16.567Z,81.30
2023-09-06T20:02:18.611Z,80.64
2023-09-06T20:07:21.685Z,81.40
2023-09-06T20:12:23.465Z,82.43
2023-09-06T20:17:25.020Z,84.73
2023-09-06T20:22:28.150Z,83.31
2023-09-06T20:27:30.811Z,84.23
2023-09-06T20:32:32.555Z,84.05
2023-09-06T20:37:35.450Z,85.05
2023-09-06T20:42:37.219Z,85.76
2023-09-06T20:47:39.212Z,86.77
2023-09-06T20:52:42.290Z,89.14
2023-09-06T20:57:44.204Z,92.00
2023-09-06T21:02:45.793Z,92.92
2023-09-06T21:07:48.866Z,92.50
2023-09-06T21:12:50.903Z,92.64
2023-09-06T21:17:52.575Z,93.44
2023-09-06T21:22:55.669Z,92.88
2023-09-06T21:27:57.326Z,92.50
2023-09-06T21:32:59.128Z,92.83
2023-09-06T21:38:02.280Z,93.92
2023-09-06T21:43:15.987Z,94.59
2023-09-06T21:48:19.915Z,95.72
2023-09-06T21:53:23.010Z,97.69
2023-09-06T21:58:24.778Z,98.56
2023-09-06T22:03:45.348Z,100.00
2023-09-06T22:09:07.053Z,100.00
2023-09-06T22:14:27.363Z,100.00
2023-09-06T22:19:28.989Z,100.00
2023-09-06T22:24:32.012Z,100.00
2023-09-06T22:29:33.678Z,99.84
2023-09-06T22:34:36.552Z,99.12
2023-09-06T22:39:39.631Z,99.91
2023-09-06T22:44:41.434Z,99.02
2023-09-06T22:49:43.221Z,97.39
2023-09-06T22:54:46.240Z,96.99
2023-09-06T22:59:47.992Z,98.48
2023-09-06T23:04:49.663Z,97.87
2023-09-06T23:09:53.022Z,100.00
2023-09-06T23:14:54.899Z,100.00
2023-09-06T23:19:56.556Z,100.00
2023-09-06T23:24:59.574Z,100.00
2023-09-06T23:30:01.248Z,100.00
2023-09-06T23:35:03.539Z,100.00
2023-09-06T23:40:08.233Z,100.00
2023-09-06T23:45:10.605Z,100.00
2023-09-06T23:50:12.578Z,100.00
2023-09-06T23:55:15.629Z,100.00
